createdAt,value
2018-12-03T00:00:13.084Z,993.83
2018-12-03T00:01:13.058Z,993.85
2018-12-03T00:02:13.038Z,993.78
2018-12-03T00:03:13.023Z,993.74
2018-12-03T00:04:13.004Z,993.82
2018-12-03T00:05:12.980Z,993.75
2018-12-03T00:06:12.956Z,993.73
2018-12-03T00:07:12.935Z,993.65
2018-12-03T00:08:12.921Z,993.64
2018-12-03T00:09:12.896Z,993.60
2018-12-03T00:10:12.874Z,993.58
2018-12-03T00:11:12.860Z,993.60
2018-12-03T00:12:12.837Z,993.60
2018-12-03T00:13:12.819Z,993.59
2018-12-03T00:14:12.795Z,993.51
2018-12-03T00:15:12.771Z,993.61
2018-12-03T00:16:12.753Z,993.56
2018-12-03T00:17:12.730Z,993.57
2018-12-03T00:18:12.711Z,993.62
2018-12-03T00:19:12.692Z,993.58
2018-12-03T00:20:12.668Z,993.54
2018-12-03T00:21:12.648Z,993.57
2018-12-03T00:22:12.630Z,993.57
2018-12-03T00:23:12.609Z,993.55
2018-12-03T00:24:12.588Z,993.54
2018-12-03T00:25:12.565Z,993.53
2018-12-03T00:26:12.546Z,993.51
2018-12-03T00:27:12.536Z,993.47
2018-12-03T00:28:12.502Z,993.46
2018-12-03T00:29:12.491Z,993.45
2018-12-03T00:30:12.462Z,993.39
2018-12-03T00:31:12.442Z,993.38
2018-12-03T00:32:12.420Z,993.38
2018-12-03T00:33:12.401Z,993.38
2018-12-03T00:34:12.380Z,993.37
2018-12-03T00:35:12.360Z,993.39
2018-12-03T00:36:12.343Z,993.39
2018-12-03T00:37:12.318Z,993.42
2018-12-03T00:38:12.299Z,993.41
2018-12-03T00:39:12.277Z,993.42
2018-12-03T00:40:12.265Z,993.42
2018-12-03T00:41:12.238Z,993.45
2018-12-03T00:42:12.215Z,993.48
2018-12-03T00:43:12.198Z,993.50
2018-12-03T00:44:12.175Z,993.46
2018-12-03T00:45:12.160Z,993.49
2018-12-03T00:46:12.139Z,993.47
2018-12-03T00:47:12.114Z,993.47
2018-12-03T00:48:12.096Z,993.45
2018-12-03T00:49:12.072Z,993.44
2018-12-03T00:50:12.051Z,993.43
2018-12-03T00:51:12.039Z,993.41
2018-12-03T00:52:12.011Z,993.41
2018-12-03T00:53:11.995Z,993.45
2018-12-03T00:54:11.977Z,993.54
2018-12-03T00:55:11.952Z,993.53
2018-12-03T00:56:11.928Z,993.56
2018-12-03T00:57:11.910Z,993.53
2018-12-03T00:58:11.887Z,993.48
2018-12-03T00:59:11.874Z,993.48
2018-12-03T01:00:11.855Z,993.47
2018-12-03T01:01:11.828Z,993.47
2018-12-03T01:02:11.804Z,993.47
2018-12-03T01:03:11.784Z,993.44
2018-12-03T01:04:11.764Z,993.43
2018-12-03T01:05:11.748Z,993.47
2018-12-03T01:06:11.722Z,993.45
2018-12-03T01:07:11.713Z,993.52
2018-12-03T01:08:11.684Z,993.53
2018-12-03T01:09:11.664Z,993.56
2018-12-03T01:10:11.639Z,993.56
2018-12-03T01:11:11.626Z,993.59
2018-12-03T01:12:11.601Z,993.65
2018-12-03T01:13:11.590Z,993.65
2018-12-03T01:14:11.560Z,993.59
2018-12-03T01:15:11.542Z,993.62
2018-12-03T01:16:11.520Z,993.67
2018-12-03T01:17:11.507Z,993.59
2018-12-03T01:18:11.479Z,993.50
2018-12-03T01:19:11.459Z,993.52
2018-12-03T01:20:11.438Z,993.49
2018-12-03T01:21:11.418Z,993.49
2018-12-03T01:22:11.397Z,993.46
2018-12-03T01:23:11.380Z,993.49
2018-12-03T01:24:11.355Z,993.47
2018-12-03T01:25:11.337Z,993.55
2018-12-03T01:26:11.315Z,993.56
2018-12-03T01:27:11.295Z,993.59
2018-12-03T01:28:11.276Z,993.60
2018-12-03T01:29:11.253Z,993.63
2018-12-03T01:30:11.232Z,993.63
2018-12-03T01:31:11.214Z,993.56
2018-12-03T01:32:11.192Z,993.53
2018-12-03T01:33:11.174Z,993.53
2018-12-03T01:34:11.152Z,993.58
2018-12-03T01:35:11.132Z,993.51
2018-12-03T01:36:11.111Z,993.57
2018-12-03T01:37:11.092Z,993.55
2018-12-03T01:38:11.071Z,993.53
2018-12-03T01:39:11.055Z,993.53
2018-12-03T01:40:11.041Z,993.55
2018-12-03T01:41:11.011Z,993.57
2018-12-03T01:42:10.989Z,993.56
2018-12-03T01:43:10.968Z,993.57
2018-12-03T01:44:10.948Z,993.54
2018-12-03T01:45:10.929Z,993.57
2018-12-03T01:46:10.906Z,993.58
2018-12-03T01:47:10.888Z,993.53
2018-12-03T01:48:10.874Z,993.46
2018-12-03T01:49:10.847Z,993.50
2018-12-03T01:50:10.831Z,993.54
2018-12-03T01:51:10.806Z,993.54
2018-12-03T01:52:10.783Z,993.50
2018-12-03T01:53:10.764Z,993.54
2018-12-03T01:54:10.745Z,993.56
2018-12-03T01:55:10.723Z,993.57
2018-12-03T01:56:10.702Z,993.58
2018-12-03T01:57:10.686Z,993.54
2018-12-03T01:58:10.667Z,993.55
2018-12-03T01:59:10.645Z,993.57
2018-12-03T02:00:10.623Z,993.60
2018-12-03T02:01:10.602Z,993.58
2018-12-03T02:02:10.582Z,993.55
2018-12-03T02:03:10.563Z,993.56
2018-12-03T02:04:10.542Z,993.53
2018-12-03T02:05:10.519Z,993.49
2018-12-03T02:06:10.498Z,993.54
2018-12-03T02:07:10.480Z,993.55
2018-12-03T02:08:10.458Z,993.57
2018-12-03T02:09:10.445Z,993.56
2018-12-03T02:10:10.417Z,993.58
2018-12-03T02:11:10.400Z,993.58
2018-12-03T02:12:10.385Z,993.55
2018-12-03T02:13:10.358Z,993.51
2018-12-03T02:14:10.336Z,993.56
2018-12-03T02:15:10.317Z,993.53
2018-12-03T02:16:10.301Z,993.50
2018-12-03T02:17:10.276Z,993.46
2018-12-03T02:18:10.254Z,993.44
2018-12-03T02:19:10.233Z,993.47
2018-12-03T02:20:10.214Z,993.45
2018-12-03T02:21:10.192Z,993.47
2018-12-03T02:22:10.172Z,993.49
2018-12-03T02:23:10.155Z,993.53
2018-12-03T02:24:10.140Z,993.48
2018-12-03T02:25:10.119Z,993.46
2018-12-03T02:26:10.093Z,993.43
2018-12-03T02:27:10.070Z,993.41
2018-12-03T02:28:10.049Z,993.37
2018-12-03T02:29:10.029Z,993.38
2018-12-03T02:30:10.010Z,993.37
2018-12-03T02:31:09.988Z,993.32
2018-12-03T02:32:09.969Z,993.27
2018-12-03T02:33:09.948Z,993.30
2018-12-03T02:34:09.930Z,993.29
2018-12-03T02:35:09.907Z,993.29
2018-12-03T02:36:09.886Z,993.29
2018-12-03T02:37:09.867Z,993.27
2018-12-03T02:38:09.849Z,993.30
2018-12-03T02:39:09.824Z,993.33
2018-12-03T02:40:09.808Z,993.36
2018-12-03T02:41:09.787Z,993.36
2018-12-03T02:42:09.764Z,993.38
2018-12-03T02:43:09.742Z,993.44
2018-12-03T02:44:09.722Z,993.44
2018-12-03T02:45:09.703Z,993.39
2018-12-03T02:46:09.685Z,993.32
2018-12-03T02:47:09.662Z,993.26
2018-12-03T02:48:09.645Z,993.20
2018-12-03T02:49:09.621Z,993.18
2018-12-03T02:50:09.599Z,993.18
2018-12-03T02:51:09.579Z,993.22
2018-12-03T02:52:09.567Z,993.15
2018-12-03T02:53:09.540Z,993.13
2018-12-03T02:54:09.518Z,993.09
2018-12-03T02:55:09.497Z,993.09
2018-12-03T02:56:09.495Z,993.08
2018-12-03T02:57:09.458Z,993.00
2018-12-03T02:58:09.437Z,992.94
2018-12-03T02:59:09.419Z,992.93
2018-12-03T03:00:09.400Z,992.89
2018-12-03T03:01:09.381Z,992.84
2018-12-03T03:02:09.359Z,992.91
2018-12-03T03:03:09.336Z,992.98
2018-12-03T03:04:09.322Z,992.98
2018-12-03T03:05:09.298Z,993.00
2018-12-03T03:06:09.293Z,993.07
2018-12-03T03:07:09.257Z,993.07
2018-12-03T03:08:09.237Z,993.02
2018-12-03T03:09:09.215Z,993.04
2018-12-03T03:10:09.196Z,993.05
2018-12-03T03:11:09.175Z,993.08
2018-12-03T03:12:09.153Z,993.06
2018-12-03T03:13:09.135Z,993.12
2018-12-03T03:14:09.113Z,993.10
2018-12-03T03:15:09.101Z,993.05
2018-12-03T03:16:09.073Z,993.07
2018-12-03T03:17:09.051Z,993.09
2018-12-03T03:18:09.032Z,993.09
2018-12-03T03:19:09.013Z,993.10
2018-12-03T03:20:09.005Z,993.09
2018-12-03T03:21:08.971Z,993.07
2018-12-03T03:22:08.950Z,993.00
2018-12-03T03:23:08.930Z,992.97
2018-12-03T03:24:08.909Z,993.03
2018-12-03T03:25:08.903Z,993.03
2018-12-03T03:26:08.869Z,992.97
2018-12-03T03:27:08.853Z,993.04
2018-12-03T03:28:08.827Z,993.04
2018-12-03T03:29:08.810Z,993.05
2018-12-03T03:30:08.787Z,993.05
2018-12-03T03:31:08.770Z,993.06
2018-12-03T03:32:08.748Z,993.04
2018-12-03T03:33:08.727Z,993.04
2018-12-03T03:34:08.705Z,993.13
2018-12-03T03:35:08.696Z,993.15
2018-12-03T03:36:08.665Z,993.10
2018-12-03T03:37:08.645Z,993.10
2018-12-03T03:38:08.623Z,993.10
2018-12-03T03:39:08.603Z,993.10
2018-12-03T03:40:08.582Z,993.15
2018-12-03T03:41:08.562Z,993.19
2018-12-03T03:42:08.542Z,993.16
2018-12-03T03:43:08.525Z,993.22
2018-12-03T03:44:08.505Z,993.24
2018-12-03T03:45:08.484Z,993.20
2018-12-03T03:46:08.461Z,993.19
2018-12-03T03:47:08.444Z,993.16
2018-12-03T03:48:08.421Z,993.22
2018-12-03T03:49:08.400Z,993.26
2018-12-03T03:50:08.376Z,993.31
2018-12-03T03:51:08.357Z,993.28
2018-12-03T03:52:08.346Z,993.27
2018-12-03T03:53:08.316Z,993.31
2018-12-03T03:54:08.298Z,993.31
2018-12-03T03:55:08.280Z,993.31
2018-12-03T03:56:08.260Z,993.32
2018-12-03T03:57:08.237Z,993.36
2018-12-03T03:58:08.217Z,993.34
2018-12-03T03:59:08.196Z,993.37
2018-12-03T04:00:08.177Z,993.39
2018-12-03T04:01:08.158Z,993.42
2018-12-03T04:02:08.137Z,993.37
2018-12-03T04:03:08.114Z,993.42
2018-12-03T04:04:08.091Z,993.39
2018-12-03T04:05:08.074Z,993.40
2018-12-03T04:06:08.065Z,993.40
2018-12-03T04:07:08.033Z,993.32
2018-12-03T04:08:08.021Z,993.27
2018-12-03T04:09:07.994Z,993.27
2018-12-03T04:10:07.971Z,993.30
2018-12-03T04:11:07.950Z,993.14
2018-12-03T04:12:07.931Z,993.09
2018-12-03T04:13:07.912Z,993.06
2018-12-03T04:14:07.890Z,993.23
2018-12-03T04:15:07.870Z,993.23
2018-12-03T04:16:07.867Z,993.18
2018-12-03T04:17:07.827Z,993.15
2018-12-03T04:18:07.806Z,993.11
2018-12-03T04:19:07.786Z,993.13
2018-12-03T04:20:07.766Z,993.10
2018-12-03T04:21:07.773Z,993.17
2018-12-03T04:22:07.724Z,993.22
2018-12-03T04:23:07.715Z,993.13
2018-12-03T04:24:07.684Z,993.16
2018-12-03T04:25:07.666Z,993.12
2018-12-03T04:26:07.641Z,993.18
2018-12-03T04:27:07.623Z,993.16
2018-12-03T04:28:07.607Z,993.11
2018-12-03T04:29:07.581Z,993.13
2018-12-03T04:30:07.560Z,993.10
2018-12-03T04:31:07.539Z,993.12
2018-12-03T04:32:07.520Z,993.12
2018-12-03T04:33:07.500Z,993.11
2018-12-03T04:34:07.479Z,993.12
2018-12-03T04:35:07.458Z,993.18
2018-12-03T04:36:07.436Z,993.18
2018-12-03T04:37:07.417Z,993.21
2018-12-03T04:38:07.462Z,993.22
2018-12-03T04:39:07.375Z,993.15
2018-12-03T04:40:07.362Z,993.17
2018-12-03T04:41:07.336Z,993.17
2018-12-03T04:42:07.320Z,993.18
2018-12-03T04:43:07.295Z,993.12
2018-12-03T04:44:07.272Z,993.14
2018-12-03T04:45:07.252Z,993.08
2018-12-03T04:46:07.230Z,993.11
2018-12-03T04:47:07.211Z,993.10
2018-12-03T04:48:07.189Z,993.12
2018-12-03T04:49:07.171Z,993.16
2018-12-03T04:50:07.149Z,993.15
2018-12-03T04:51:07.130Z,993.16
2018-12-03T04:52:07.106Z,993.14
2018-12-03T04:53:07.088Z,993.16
2018-12-03T04:54:07.070Z,993.15
2018-12-03T04:55:07.046Z,993.11
2018-12-03T04:56:07.027Z,993.14
2018-12-03T04:57:07.013Z,993.19
2018-12-03T04:58:06.987Z,993.24
2018-12-03T04:59:06.963Z,993.19
2018-12-03T05:00:06.947Z,993.18
2018-12-03T05:01:06.923Z,993.19
2018-12-03T05:02:06.908Z,993.15
2018-12-03T05:03:06.883Z,993.17
2018-12-03T05:04:06.865Z,993.17
2018-12-03T05:05:06.847Z,993.20
2018-12-03T05:06:06.819Z,993.23
2018-12-03T05:07:06.800Z,993.19
2018-12-03T05:08:06.783Z,993.25
2018-12-03T05:09:06.759Z,993.29
2018-12-03T05:10:06.738Z,993.30
2018-12-03T05:11:06.720Z,993.27
2018-12-03T05:12:06.698Z,993.26
2018-12-03T05:13:06.678Z,993.25
2018-12-03T05:14:06.656Z,993.32
2018-12-03T05:15:06.638Z,993.32
2018-12-03T05:16:06.614Z,993.33
2018-12-03T05:17:06.596Z,993.35
2018-12-03T05:18:06.573Z,993.33
2018-12-03T05:19:06.556Z,993.33
2018-12-03T05:20:06.532Z,993.29
2018-12-03T05:21:06.510Z,993.40
2018-12-03T05:22:06.490Z,993.33
2018-12-03T05:23:06.470Z,993.35
2018-12-03T05:24:06.451Z,993.41
2018-12-03T05:25:06.429Z,993.38
2018-12-03T05:26:06.410Z,993.42
2018-12-03T05:27:06.388Z,993.45
2018-12-03T05:28:06.366Z,993.49
2018-12-03T05:29:06.345Z,993.46
2018-12-03T05:30:06.327Z,993.43
2018-12-03T05:31:06.303Z,993.43
2018-12-03T05:32:06.283Z,993.41
2018-12-03T05:33:06.264Z,993.45
2018-12-03T05:34:06.244Z,993.40
2018-12-03T05:35:06.221Z,993.43
2018-12-03T05:36:06.215Z,993.47
2018-12-03T05:37:06.182Z,993.39
2018-12-03T05:38:06.160Z,993.41
2018-12-03T05:39:06.138Z,993.37
2018-12-03T05:40:06.118Z,993.40
2018-12-03T05:41:06.097Z,993.44
2018-12-03T05:42:06.076Z,993.47
2018-12-03T05:43:06.061Z,993.43
2018-12-03T05:44:06.040Z,993.51
2018-12-03T05:45:06.014Z,993.46
2018-12-03T05:46:05.994Z,993.46
2018-12-03T05:47:05.978Z,993.46
2018-12-03T05:48:05.953Z,993.51
2018-12-03T05:49:05.943Z,993.46
2018-12-03T05:50:05.911Z,993.46
2018-12-03T05:51:05.898Z,993.49
2018-12-03T05:52:05.871Z,993.45
2018-12-03T05:53:05.861Z,993.46
2018-12-03T05:54:05.834Z,993.44
2018-12-03T05:55:05.810Z,993.45
2018-12-03T05:56:05.788Z,993.45
2018-12-03T05:57:05.769Z,993.44
2018-12-03T05:58:05.749Z,993.48
2018-12-03T05:59:05.735Z,993.44
2018-12-03T06:00:05.710Z,993.44
2018-12-03T06:01:05.688Z,993.48
2018-12-03T06:02:05.671Z,993.50
2018-12-03T06:03:05.648Z,993.46
2018-12-03T06:04:05.625Z,993.54
2018-12-03T06:05:05.612Z,993.51
2018-12-03T06:06:05.584Z,993.51
2018-12-03T06:07:05.562Z,993.54
2018-12-03T06:08:05.542Z,993.54
2018-12-03T06:09:05.529Z,993.60
2018-12-03T06:10:05.499Z,993.63
2018-12-03T06:11:05.478Z,993.72
2018-12-03T06:12:05.461Z,993.62
2018-12-03T06:13:05.438Z,993.65
2018-12-03T06:14:05.416Z,993.52
2018-12-03T06:15:05.406Z,993.49
2018-12-03T06:16:05.377Z,993.51
2018-12-03T06:17:05.353Z,993.59
2018-12-03T06:18:05.336Z,993.62
2018-12-03T06:19:05.313Z,993.68
2018-12-03T06:20:05.292Z,993.72
2018-12-03T06:21:05.271Z,993.69
2018-12-03T06:22:05.249Z,993.66
2018-12-03T06:23:05.231Z,993.65
2018-12-03T06:24:05.209Z,993.71
2018-12-03T06:25:05.206Z,993.71
2018-12-03T06:26:05.169Z,993.78
2018-12-03T06:27:05.147Z,993.67
2018-12-03T06:28:05.126Z,993.71
2018-12-03T06:29:05.114Z,993.74
2018-12-03T06:30:05.085Z,993.69
2018-12-03T06:31:05.066Z,993.76
2018-12-03T06:32:05.043Z,993.72
2018-12-03T06:33:05.021Z,993.66
2018-12-03T06:34:05.008Z,993.77
2018-12-03T06:35:04.981Z,993.70
2018-12-03T06:36:04.961Z,993.72
2018-12-03T06:37:04.939Z,993.75
2018-12-03T06:38:04.918Z,993.78
2018-12-03T06:39:04.897Z,993.85
2018-12-03T06:40:04.879Z,993.82
2018-12-03T06:41:04.861Z,993.79
2018-12-03T06:42:04.838Z,993.83
2018-12-03T06:43:04.815Z,993.78
2018-12-03T06:44:04.794Z,993.73
2018-12-03T06:45:04.771Z,993.79
2018-12-03T06:46:04.751Z,993.76
2018-12-03T06:47:04.731Z,993.81
2018-12-03T06:48:04.711Z,993.76
2018-12-03T06:49:04.689Z,993.81
2018-12-03T06:50:04.670Z,993.78
2018-12-03T06:51:04.648Z,993.68
2018-12-03T06:52:04.627Z,993.79
2018-12-03T06:53:04.606Z,993.86
2018-12-03T06:54:04.586Z,993.82
2018-12-03T06:55:04.566Z,993.86
2018-12-03T06:56:04.546Z,993.82
2018-12-03T06:57:04.525Z,993.81
2018-12-03T06:58:04.504Z,993.78
2018-12-03T06:59:04.485Z,993.78
2018-12-03T07:00:04.468Z,993.77
2018-12-03T07:01:04.444Z,993.74
2018-12-03T07:02:04.419Z,993.75
2018-12-03T07:03:04.400Z,993.71
2018-12-03T07:04:04.381Z,993.75
2018-12-03T07:05:04.359Z,993.70
2018-12-03T07:06:04.337Z,993.74
2018-12-03T07:07:04.325Z,993.71
2018-12-03T07:08:04.296Z,993.71
2018-12-03T07:09:04.277Z,993.71
2018-12-03T07:10:04.253Z,993.71
2018-12-03T07:11:04.233Z,993.74
2018-12-03T07:12:04.213Z,993.76
2018-12-03T07:13:04.193Z,993.81
2018-12-03T07:14:04.176Z,993.82
2018-12-03T07:15:04.149Z,993.85
2018-12-03T07:16:04.134Z,993.89
2018-12-03T07:17:04.109Z,993.94
2018-12-03T07:18:04.088Z,993.90
2018-12-03T07:19:04.072Z,993.90
2018-12-03T07:20:04.047Z,993.98
2018-12-03T07:21:04.027Z,993.95
2018-12-03T07:22:04.005Z,994.01
2018-12-03T07:23:03.984Z,994.04
2018-12-03T07:24:03.965Z,994.15
2018-12-03T07:25:03.944Z,994.10
2018-12-03T07:26:03.920Z,994.14
2018-12-03T07:27:03.911Z,994.16
2018-12-03T07:28:03.886Z,994.09
2018-12-03T07:29:03.861Z,994.12
2018-12-03T07:30:03.839Z,994.07
2018-12-03T07:31:03.825Z,994.05
2018-12-03T07:32:03.803Z,993.98
2018-12-03T07:33:03.777Z,994.05
2018-12-03T07:34:03.757Z,994.11
2018-12-03T07:35:03.735Z,994.14
2018-12-03T07:36:03.718Z,994.16
2018-12-03T07:37:03.701Z,994.13
2018-12-03T07:38:03.672Z,994.18
2018-12-03T07:39:03.655Z,994.17
2018-12-03T07:40:03.630Z,994.18
2018-12-03T07:41:03.612Z,994.18
2018-12-03T07:42:03.591Z,994.13
2018-12-03T07:43:03.567Z,994.12
2018-12-03T07:44:03.548Z,994.14
2018-12-03T07:45:03.531Z,994.17
2018-12-03T07:46:03.506Z,994.19
2018-12-03T07:47:03.491Z,994.17
2018-12-03T07:48:03.465Z,994.16
2018-12-03T07:49:03.457Z,994.23
2018-12-03T07:50:03.422Z,994.21
2018-12-03T07:51:03.410Z,994.28
2018-12-03T07:52:03.382Z,994.24
2018-12-03T07:53:03.370Z,994.29
2018-12-03T07:54:03.338Z,994.29
2018-12-03T07:55:03.319Z,994.28
2018-12-03T07:56:03.311Z,994.27
2018-12-03T07:57:03.284Z,994.35
2018-12-03T07:58:03.256Z,994.30
2018-12-03T07:59:03.238Z,994.31
2018-12-03T08:00:03.223Z,994.27
2018-12-03T08:01:03.203Z,994.28
2018-12-03T08:02:03.172Z,994.36
2018-12-03T08:03:03.156Z,994.37
2018-12-03T08:04:03.131Z,994.41
2018-12-03T08:05:03.117Z,994.34
2018-12-03T08:06:03.095Z,994.36
2018-12-03T08:07:03.075Z,994.39
2018-12-03T08:08:03.048Z,994.36
2018-12-03T08:09:03.029Z,994.42
2018-12-03T08:10:03.007Z,994.39
2018-12-03T08:11:02.986Z,994.44
2018-12-03T08:12:02.964Z,994.45
2018-12-03T08:13:02.945Z,994.41
2018-12-03T08:14:02.922Z,994.43
2018-12-03T08:15:02.905Z,994.42
2018-12-03T08:16:02.881Z,994.43
2018-12-03T08:17:02.861Z,994.44
2018-12-03T08:18:02.839Z,994.42
2018-12-03T08:19:02.829Z,994.45
2018-12-03T08:20:02.799Z,994.42
2018-12-03T08:21:02.780Z,994.43
2018-12-03T08:22:02.760Z,994.42
2018-12-03T08:23:02.736Z,994.44
2018-12-03T08:24:02.718Z,994.46
2018-12-03T08:25:02.696Z,994.38
2018-12-03T08:26:02.672Z,994.47
2018-12-03T08:27:02.655Z,994.43
2018-12-03T08:28:02.632Z,994.44
2018-12-03T08:29:02.614Z,994.51
2018-12-03T08:30:02.592Z,994.46
2018-12-03T08:31:02.570Z,994.48
2018-12-03T08:32:02.548Z,994.48
2018-12-03T08:33:02.527Z,994.50
2018-12-03T08:34:02.507Z,994.53
2018-12-03T08:35:02.487Z,994.47
2018-12-03T08:36:02.489Z,994.48
2018-12-03T08:37:02.453Z,994.47
2018-12-03T08:38:03.503Z,994.45
2018-12-03T08:39:02.402Z,994.44
2018-12-03T08:40:02.392Z,994.40
2018-12-03T08:41:02.361Z,994.39
2018-12-03T08:42:02.340Z,994.39
2018-12-03T08:43:02.320Z,994.33
2018-12-03T08:44:02.302Z,994.46
2018-12-03T08:45:02.280Z,994.50
2018-12-03T08:46:02.257Z,994.48
2018-12-03T08:47:02.236Z,994.47
2018-12-03T08:48:02.215Z,994.48
2018-12-03T08:49:02.198Z,994.53
2018-12-03T08:50:02.172Z,994.52
2018-12-03T08:51:02.160Z,994.53
2018-12-03T08:52:02.138Z,994.48
2018-12-03T08:53:02.111Z,994.51
2018-12-03T08:54:02.091Z,994.58
2018-12-03T08:55:02.069Z,994.53
2018-12-03T08:56:02.056Z,994.63
2018-12-03T08:57:02.031Z,994.67
2018-12-03T08:58:02.007Z,994.57
2018-12-03T08:59:01.987Z,994.59
2018-12-03T09:00:01.966Z,994.57
2018-12-03T09:01:01.945Z,994.61
2018-12-03T09:02:01.925Z,994.61
2018-12-03T09:03:01.904Z,994.65
2018-12-03T09:04:01.883Z,994.66
2018-12-03T09:05:01.867Z,994.64
2018-12-03T09:06:01.842Z,994.68
2018-12-03T09:07:01.822Z,994.71
2018-12-03T09:08:01.800Z,994.71
2018-12-03T09:09:01.778Z,994.72
2018-12-03T09:10:01.757Z,994.69
2018-12-03T09:11:01.739Z,994.70
2018-12-03T09:12:01.715Z,994.69
2018-12-03T09:13:01.696Z,994.70
2018-12-03T09:14:01.726Z,994.70
2018-12-03T09:15:01.669Z,994.70
2018-12-03T09:16:01.633Z,994.72
2018-12-03T09:17:02.601Z,994.66
2018-12-03T09:18:01.593Z,994.72
2018-12-03T09:19:01.581Z,994.65
2018-12-03T09:20:01.553Z,994.64
2018-12-03T09:21:01.531Z,994.66
2018-12-03T09:22:01.509Z,994.62
2018-12-03T09:23:01.489Z,994.64
2018-12-03T09:24:01.470Z,994.63
2018-12-03T09:25:01.449Z,994.60
2018-12-03T09:26:01.426Z,994.64
2018-12-03T09:27:01.406Z,994.63
2018-12-03T09:28:01.387Z,994.66
2018-12-03T09:29:01.364Z,994.64
2018-12-03T09:30:01.341Z,994.68
2018-12-03T09:31:01.325Z,994.67
2018-12-03T09:32:01.310Z,994.69
2018-12-03T09:33:01.280Z,994.71
2018-12-03T09:34:01.258Z,994.69
2018-12-03T09:35:01.238Z,994.72
2018-12-03T09:36:01.222Z,994.75
2018-12-03T09:37:01.198Z,994.68
2018-12-03T09:38:01.180Z,994.71
2018-12-03T09:39:01.160Z,994.72
2018-12-03T09:40:01.137Z,994.67
2018-12-03T09:41:01.116Z,994.69
2018-12-03T09:42:01.097Z,994.68
2018-12-03T09:43:01.085Z,994.69
2018-12-03T09:44:01.058Z,994.71
2018-12-03T09:45:01.032Z,994.73
2018-12-03T09:46:01.017Z,994.69
2018-12-03T09:47:01.004Z,994.69
2018-12-03T09:48:00.970Z,994.72
2018-12-03T09:49:00.949Z,994.65
2018-12-03T09:50:00.930Z,994.75
2018-12-03T09:51:00.914Z,994.75
2018-12-03T09:52:00.887Z,994.79
2018-12-03T09:53:00.880Z,994.74
2018-12-03T09:54:00.845Z,994.77
2018-12-03T09:55:00.826Z,994.74
2018-12-03T09:56:00.806Z,994.74
2018-12-03T09:57:00.791Z,994.68
2018-12-03T09:58:00.763Z,994.70
2018-12-03T09:59:00.744Z,994.72
2018-12-03T10:00:00.734Z,994.74
2018-12-03T10:01:00.700Z,994.76
2018-12-03T10:02:00.683Z,994.80
2018-12-03T10:03:00.660Z,994.75
2018-12-03T10:04:00.640Z,994.73
2018-12-03T10:05:00.616Z,994.77
2018-12-03T10:06:00.599Z,994.68
2018-12-03T10:07:00.576Z,994.73
2018-12-03T10:08:00.554Z,994.73
2018-12-03T10:09:00.533Z,994.68
2018-12-03T10:10:00.512Z,994.77
2018-12-03T10:11:00.492Z,994.70
2018-12-03T10:12:00.472Z,994.70
2018-12-03T10:13:00.455Z,994.65
2018-12-03T10:14:00.437Z,994.69
2018-12-03T10:15:00.412Z,994.67
2018-12-03T10:16:00.388Z,994.65
2018-12-03T10:17:00.369Z,994.74
2018-12-03T10:18:00.349Z,994.66
2018-12-03T10:19:00.510Z,994.66
2018-12-03T10:20:00.313Z,994.60
2018-12-03T10:21:00.288Z,994.61
2018-12-03T10:22:00.362Z,994.69
2018-12-03T10:23:00.244Z,994.61
2018-12-03T10:24:00.224Z,994.68
2018-12-03T10:25:00.204Z,994.62
2018-12-03T10:26:00.186Z,994.66
2018-12-03T10:27:00.164Z,994.65
2018-12-03T10:28:00.143Z,994.56
2018-12-03T10:29:00.125Z,994.58
2018-12-03T10:30:00.101Z,994.65
2018-12-03T10:31:00.083Z,994.60
2018-12-03T10:32:00.057Z,994.63
2018-12-03T10:33:00.050Z,994.58
2018-12-03T10:34:00.016Z,994.62
2018-12-03T10:35:00.000Z,994.59
2018-12-03T10:35:59.981Z,994.62
2018-12-03T10:36:59.960Z,994.60
2018-12-03T10:37:59.936Z,994.59
2018-12-03T10:38:59.914Z,994.59
2018-12-03T10:39:59.894Z,994.52
2018-12-03T10:40:59.875Z,994.56
2018-12-03T10:41:59.852Z,994.58
2018-12-03T10:42:59.843Z,994.58
2018-12-03T10:43:59.812Z,994.56
2018-12-03T10:44:59.797Z,994.60
2018-12-03T10:45:59.778Z,994.58
2018-12-03T10:46:59.752Z,994.57
2018-12-03T10:47:59.732Z,994.56
2018-12-03T10:48:59.712Z,994.52
2018-12-03T10:49:59.688Z,994.51
2018-12-03T10:50:59.670Z,994.49
2018-12-03T10:51:59.648Z,994.47
2018-12-03T10:52:59.626Z,994.45
2018-12-03T10:53:59.613Z,994.46
2018-12-03T10:54:59.584Z,994.38
2018-12-03T10:55:59.568Z,994.46
2018-12-03T10:56:59.546Z,994.43
2018-12-03T10:57:59.527Z,994.48
2018-12-03T10:58:59.503Z,994.43
2018-12-03T10:59:59.483Z,994.46
2018-12-03T11:00:59.466Z,994.41
2018-12-03T11:01:59.453Z,994.44
2018-12-03T11:02:59.429Z,994.44
2018-12-03T11:03:59.401Z,994.41
2018-12-03T11:04:59.382Z,994.42
2018-12-03T11:05:59.363Z,994.37
2018-12-03T11:06:59.339Z,994.41
2018-12-03T11:07:59.319Z,994.37
2018-12-03T11:08:59.299Z,994.36
2018-12-03T11:09:59.283Z,994.36
2018-12-03T11:10:59.270Z,994.36
2018-12-03T11:11:59.245Z,994.38
2018-12-03T11:12:59.218Z,994.34
2018-12-03T11:13:59.210Z,994.38
2018-12-03T11:14:59.176Z,994.41
2018-12-03T11:15:59.155Z,994.35
2018-12-03T11:16:59.139Z,994.32
2018-12-03T11:17:59.118Z,994.36
2018-12-03T11:18:59.109Z,994.34
2018-12-03T11:19:59.076Z,994.32
2018-12-03T11:20:59.057Z,994.37
2018-12-03T11:21:59.043Z,994.40
2018-12-03T11:22:59.016Z,994.30
2018-12-03T11:23:58.992Z,994.35
2018-12-03T11:24:58.976Z,994.26
2018-12-03T11:25:58.949Z,994.30
2018-12-03T11:26:58.931Z,994.31
2018-12-03T11:27:58.908Z,994.28
2018-12-03T11:28:58.889Z,994.28
2018-12-03T11:29:58.867Z,994.34
2018-12-03T11:30:58.851Z,994.26
2018-12-03T11:31:58.828Z,994.27
2018-12-03T11:32:58.816Z,994.28
2018-12-03T11:33:58.786Z,994.21
2018-12-03T11:34:58.768Z,994.19
2018-12-03T11:35:58.745Z,994.23
2018-12-03T11:36:58.726Z,994.30
2018-12-03T11:37:58.710Z,994.15
2018-12-03T11:38:58.688Z,994.24
2018-12-03T11:39:58.668Z,994.18
2018-12-03T11:40:58.643Z,994.21
2018-12-03T11:41:58.630Z,994.19
2018-12-03T11:42:58.605Z,994.18
2018-12-03T11:43:58.596Z,994.19
2018-12-03T11:44:58.566Z,994.19
2018-12-03T11:45:58.543Z,994.14
2018-12-03T11:46:58.528Z,994.11
2018-12-03T11:47:58.503Z,994.19
2018-12-03T11:48:58.482Z,994.19
2018-12-03T11:49:58.463Z,994.18
2018-12-03T11:50:58.441Z,994.17
2018-12-03T11:51:58.428Z,994.12
2018-12-03T11:52:58.405Z,994.09
2018-12-03T11:53:58.382Z,994.15
2018-12-03T11:54:58.365Z,994.12
2018-12-03T11:55:58.341Z,994.06
2018-12-03T11:56:58.327Z,994.11
2018-12-03T11:57:58.298Z,994.09
2018-12-03T11:58:58.279Z,994.10
2018-12-03T11:59:58.262Z,994.15
2018-12-03T12:00:58.242Z,994.15
2018-12-03T12:01:58.219Z,994.08
2018-12-03T12:02:58.195Z,994.09
2018-12-03T12:03:58.176Z,994.10
2018-12-03T12:04:58.155Z,994.07
2018-12-03T12:05:58.137Z,994.08
2018-12-03T12:06:58.118Z,994.13
2018-12-03T12:07:58.094Z,994.07
2018-12-03T12:08:58.074Z,994.09
2018-12-03T12:09:58.057Z,994.10
2018-12-03T12:10:58.032Z,994.02
2018-12-03T12:11:58.023Z,994.01
2018-12-03T12:12:57.996Z,993.97
2018-12-03T12:13:57.974Z,994.02
2018-12-03T12:14:57.951Z,993.97
2018-12-03T12:15:57.933Z,993.97
2018-12-03T12:16:57.921Z,993.98
2018-12-03T12:17:57.892Z,993.97
2018-12-03T12:18:57.871Z,994.01
2018-12-03T12:19:57.856Z,993.92
2018-12-03T12:20:57.830Z,993.96
2018-12-03T12:21:57.818Z,993.95
2018-12-03T12:22:57.797Z,993.97
2018-12-03T12:23:57.769Z,993.96
2018-12-03T12:24:57.754Z,993.95
2018-12-03T12:25:57.728Z,993.93
2018-12-03T12:26:57.707Z,993.94
2018-12-03T12:27:57.689Z,994.00